sensor_id;sensor_type;location;lat;lon;timestamp;pressure;altitude;pressure_sealevel;temperature;humidity
63837;BME280;49991;50.518;30.486;2022-09-09T00:00:20;100542.94;;;20.12;33.35
63837;BME280;49991;50.518;30.486;2022-09-09T00:03:07;100534.28;;;20.08;33.57
63837;BME280;49991;50.518;30.486;2022-09-09T00:05:58;100538.63;;;20.09;33.43
63837;BME280;49991;50.518;30.486;2022-09-09T00:08:49;100543.88;;;20.11;33.45
63837;BME280;49991;50.518;30.486;2022-09-09T00:11:36;100540.41;;;20.09;33.29
63837;BME280;49991;50.518;30.486;2022-09-09T00:14:26;100544.09;;;20.05;33.48
63837;BME280;49991;50.518;30.486;2022-09-09T00:17:18;100544.91;;;20.07;33.37
63837;BME280;49991;50.518;30.486;2022-09-09T00:20:09;100540.59;;;20.04;33.77
63837;BME280;49991;50.518;30.486;2022-09-09T00:22:57;100534.44;;;20.04;33.68
63837;BME280;49991;50.518;30.486;2022-09-09T00:25:47;100540.78;;;20.00;33.60
63837;BME280;49991;50.518;30.486;2022-09-09T00:28:36;100545.22;;;19.98;33.99
63837;BME280;49991;50.518;30.486;2022-09-09T00:31:24;100551.50;;;19.95;33.94
63837;BME280;49991;50.518;30.486;2022-09-09T00:34:13;100551.56;;;19.94;33.80
63837;BME280;49991;50.518;30.486;2022-09-09T00:36:59;100550.53;;;19.98;33.93
63837;BME280;49991;50.518;30.486;2022-09-09T00:39:45;100550.53;;;19.98;33.88
63837;BME280;49991;50.518;30.486;2022-09-09T00:42:33;100561.94;;;19.98;33.87
63837;BME280;49991;50.518;30.486;2022-09-09T00:45:28;100567.25;;;19.98;33.85
63837;BME280;49991;50.518;30.486;2022-09-09T00:48:19;100564.66;;;19.97;33.97
63837;BME280;49991;50.518;30.486;2022-09-09T00:51:08;100563.06;;;19.93;34.06
63837;BME280;49991;50.518;30.486;2022-09-09T00:54:10;100572.75;;;19.92;34.06
63837;BME280;49991;50.518;30.486;2022-09-09T00:57:02;100564.88;;;19.91;33.87
63837;BME280;49991;50.518;30.486;2022-09-09T00:59:50;100568.41;;;19.91;33.83
63837;BME280;49991;50.518;30.486;2022-09-09T01:02:38;100575.47;;;19.91;34.12
63837;BME280;49991;50.518;30.486;2022-09-09T01:05:27;100584.38;;;19.88;34.16
63837;BME280;49991;50.518;30.486;2022-09-09T01:08:20;100579.03;;;19.90;33.95
63837;BME280;49991;50.518;30.486;2022-09-09T01:11:09;100579.03;;;19.90;34.05
63837;BME280;49991;50.518;30.486;2022-09-09T01:13:55;100580.97;;;19.85;34.10
63837;BME280;49991;50.518;30.486;2022-09-09T01:16:45;100587.13;;;19.85;33.97
63837;BME280;49991;50.518;30.486;2022-09-09T01:19:35;100586.16;;;19.88;34.34
63837;BME280;49991;50.518;30.486;2022-09-09T01:22:26;100582.59;;;19.89;34.22
63837;BME280;49991;50.518;30.486;2022-09-09T01:25:22;100579.03;;;19.90;34.05
63837;BME280;49991;50.518;30.486;2022-09-09T01:28:27;100577.25;;;19.90;34.14
63837;BME280;49991;50.518;30.486;2022-09-09T01:31:20;100579.94;;;19.89;34.49
63837;BME280;49991;50.518;30.486;2022-09-09T01:34:09;100578.22;;;19.88;34.44
63837;BME280;49991;50.518;30.486;2022-09-09T01:36:57;100580.13;;;19.84;34.21
63837;BME280;49991;50.518;30.486;2022-09-09T01:39:43;100561.69;;;19.83;34.40
63837;BME280;49991;50.518;30.486;2022-09-09T01:42:32;100572.25;;;19.83;34.84
63837;BME280;49991;50.518;30.486;2022-09-09T01:45:19;100563.41;;;19.84;34.67
63837;BME280;49991;50.518;30.486;2022-09-09T01:48:05;100563.59;;;19.77;34.55
63837;BME280;49991;50.518;30.486;2022-09-09T01:51:01;100564.50;;;19.76;34.71
63837;BME280;49991;50.518;30.486;2022-09-09T01:53:47;100564.47;;;19.78;34.62
63837;BME280;49991;50.518;30.486;2022-09-09T01:56:35;100559.28;;;19.75;34.57
63837;BME280;49991;50.518;30.486;2022-09-09T01:59:28;100548.78;;;19.73;34.68
63837;BME280;49991;50.518;30.486;2022-09-09T02:02:22;100547.91;;;19.73;34.75
63837;BME280;49991;50.518;30.486;2022-09-09T02:05:23;100559.47;;;19.70;34.79
63837;BME280;49991;50.518;30.486;2022-09-09T02:08:14;100559.47;;;19.70;34.77
63837;BME280;49991;50.518;30.486;2022-09-09T02:11:11;100563.81;;;19.71;34.90
63837;BME280;49991;50.518;30.486;2022-09-09T02:14:01;100563.72;;;19.74;34.93
63837;BME280;49991;50.518;30.486;2022-09-09T02:16:48;100569.84;;;19.75;34.93
63837;BME280;49991;50.518;30.486;2022-09-09T02:19:39;100571.69;;;19.73;34.78
63837;BME280;49991;50.518;30.486;2022-09-09T02:22:39;100570.84;;;19.72;34.91
63837;BME280;49991;50.518;30.486;2022-09-09T02:25:26;100566.47;;;19.71;34.83
63837;BME280;49991;50.518;30.486;2022-09-09T02:28:17;100570.78;;;19.74;34.78
63837;BME280;49991;50.518;30.486;2022-09-09T02:31:05;100569.13;;;19.71;34.70
63837;BME280;49991;50.518;30.486;2022-09-09T02:33:56;100571.69;;;19.73;34.83
63837;BME280;49991;50.518;30.486;2022-09-09T02:36:43;100563.81;;;19.71;34.95
63837;BME280;49991;50.518;30.486;2022-09-09T02:39:31;100564.75;;;19.70;35.07
63837;BME280;49991;50.518;30.486;2022-09-09T02:42:16;100571.91;;;19.67;35.15
63837;BME280;49991;50.518;30.486;2022-09-09T02:45:02;100570.19;;;19.66;34.94
63837;BME280;49991;50.518;30.486;2022-09-09T02:47:48;100560.59;;;19.63;35.36
63837;BME280;49991;50.518;30.486;2022-09-09T02:50:39;100557.03;;;19.64;35.42
63837;BME280;49991;50.518;30.486;2022-09-09T02:53:32;100560.56;;;19.65;35.14
63837;BME280;49991;50.518;30.486;2022-09-09T02:56:25;100560.59;;;19.63;35.59
63837;BME280;49991;50.518;30.486;2022-09-09T02:59:13;100558.06;;;19.60;35.61
63837;BME280;49991;50.518;30.486;2022-09-09T03:01:58;100559.84;;;19.60;35.39
63837;BME280;49991;50.518;30.486;2022-09-09T03:04:44;100566.19;;;19.54;35.80
63837;BME280;49991;50.518;30.486;2022-09-09T03:07:34;100564.34;;;19.56;35.73
63837;BME280;49991;50.518;30.486;2022-09-09T03:10:21;100564.44;;;19.53;35.90
63837;BME280;49991;50.518;30.486;2022-09-09T03:13:05;100571.47;;;19.54;35.67
63837;BME280;49991;50.518;30.486;2022-09-09T03:15:55;100572.34;;;19.55;35.70
63837;BME280;49991;50.518;30.486;2022-09-09T03:18:40;100576.75;;;19.54;35.99
63837;BME280;49991;50.518;30.486;2022-09-09T03:21:26;100574.94;;;19.56;36.04
63837;BME280;49991;50.518;30.486;2022-09-09T03:24:12;100568.78;;;19.56;35.80
63837;BME280;49991;50.518;30.486;2022-09-09T03:26:59;100575.78;;;19.57;35.76
63837;BME280;49991;50.518;30.486;2022-09-09T03:29:44;100582.72;;;19.61;35.62
63837;BME280;49991;50.518;30.486;2022-09-09T03:32:32;100586.06;;;19.66;35.66
63837;BME280;49991;50.518;30.486;2022-09-09T03:35:17;100580.53;;;19.72;35.79
63837;BME280;49991;50.518;30.486;2022-09-09T03:38:03;100582.69;;;19.86;35.40
63837;BME280;49991;50.518;30.486;2022-09-09T03:40:50;100567.03;;;19.81;35.28
63837;BME280;49991;50.518;30.486;2022-09-09T03:43:40;100587.16;;;20.08;35.00
63837;BME280;49991;50.518;30.486;2022-09-09T03:46:25;100589.28;;;20.22;34.62
63837;BME280;49991;50.518;30.486;2022-09-09T03:49:11;100602.16;;;20.31;34.43
63837;BME280;49991;50.518;30.486;2022-09-09T03:51:56;100591.47;;;20.34;34.42
63837;BME280;49991;50.518;30.486;2022-09-09T03:54:42;100588.13;;;20.29;34.67
63837;BME280;49991;50.518;30.486;2022-09-09T03:57:28;100596.88;;;20.31;34.77
63837;BME280;49991;50.518;30.486;2022-09-09T04:00:15;100594.13;;;20.58;34.13
63837;BME280;49991;50.518;30.486;2022-09-09T04:03:08;100585.31;;;20.79;33.70
63837;BME280;49991;50.518;30.486;2022-09-09T04:05:54;100575.31;;;20.87;33.63
63837;BME280;49991;50.518;30.486;2022-09-09T04:08:41;100571.75;;;20.88;33.55
63837;BME280;49991;50.518;30.486;2022-09-09T04:11:26;100571.06;;;20.83;33.57
63837;BME280;49991;50.518;30.486;2022-09-09T04:14:15;100576.31;;;20.85;33.55
63837;BME280;49991;50.518;30.486;2022-09-09T04:17:01;100589.16;;;20.94;33.40
63837;BME280;49991;50.518;30.486;2022-09-09T04:19:49;100593.59;;;20.93;33.31
63837;BME280;49991;50.518;30.486;2022-09-09T04:22:35;100588.22;;;20.95;33.41
63837;BME280;49991;50.518;30.486;2022-09-09T04:25:22;100592.78;;;20.91;33.29
63837;BME280;49991;50.518;30.486;2022-09-09T04:28:07;100607.94;;;20.88;33.31
63837;BME280;49991;50.518;30.486;2022-09-09T04:30:53;100617.66;;;20.87;33.33
63837;BME280;49991;50.518;30.486;2022-09-09T04:33:40;100625.81;;;20.83;33.35
63837;BME280;49991;50.518;30.486;2022-09-09T04:36:27;100625.81;;;20.81;33.63
63837;BME280;49991;50.518;30.486;2022-09-09T04:39:16;100621.59;;;21.21;32.80
63837;BME280;49991;50.518;30.486;2022-09-09T04:42:01;100621.09;;;21.55;32.20
63837;BME280;49991;50.518;30.486;2022-09-09T04:44:47;100625.88;;;22.08;31.16
63837;BME280;49991;50.518;30.486;2022-09-09T04:47:33;100630.00;;;22.34;31.00
63837;BME280;49991;50.518;30.486;2022-09-09T04:50:21;100626.22;;;22.58;30.61
63837;BME280;49991;50.518;30.486;2022-09-09T04:53:13;100631.09;;;21.69;31.02
63837;BME280;49991;50.518;30.486;2022-09-09T04:56:02;100632.56;;;21.76;31.40
63837;BME280;49991;50.518;30.486;2022-09-09T04:58:50;100633.09;;;22.04;30.80
63837;BME280;49991;50.518;30.486;2022-09-09T05:01:36;100641.09;;;22.23;30.33
63837;BME280;49991;50.518;30.486;2022-09-09T05:04:23;100647.56;;;22.36;30.12
63837;BME280;49991;50.518;30.486;2022-09-09T05:07:10;100644.41;;;22.47;29.91
63837;BME280;49991;50.518;30.486;2022-09-09T05:09:57;100636.91;;;22.57;29.60
63837;BME280;49991;50.518;30.486;2022-09-09T05:12:42;100628.34;;;22.69;29.32
63837;BME280;49991;50.518;30.486;2022-09-09T05:15:27;100625.22;;;22.79;29.02
63837;BME280;49991;50.518;30.486;2022-09-09T05:18:13;100625.66;;;22.89;29.11
63837;BME280;49991;50.518;30.486;2022-09-09T05:20:58;100624.22;;;23.01;28.89
63837;BME280;49991;50.518;30.486;2022-09-09T05:23:45;100610.22;;;22.97;28.59
63837;BME280;49991;50.518;30.486;2022-09-09T05:26:31;100602.19;;;22.99;28.57
63837;BME280;49991;50.518;30.486;2022-09-09T05:29:16;100599.22;;;23.05;28.26
63837;BME280;49991;50.518;30.486;2022-09-09T05:32:03;100600.97;;;22.87;28.42
63837;BME280;49991;50.518;30.486;2022-09-09T05:34:49;100608.41;;;22.79;28.77
63837;BME280;49991;50.518;30.486;2022-09-09T05:37:35;100605.63;;;22.82;28.41
63837;BME280;49991;50.518;30.486;2022-09-09T05:40:21;100599.22;;;23.05;28.41
63837;BME280;49991;50.518;30.486;2022-09-09T05:43:07;100595.47;;;23.09;27.76
63837;BME280;49991;50.518;30.486;2022-09-09T05:45:59;100614.72;;;23.14;28.01
63837;BME280;49991;50.518;30.486;2022-09-09T05:48:45;100616.75;;;23.26;27.59
63837;BME280;49991;50.518;30.486;2022-09-09T05:51:31;100621.63;;;23.35;27.33
63837;BME280;49991;50.518;30.486;2022-09-09T05:54:21;100620.19;;;23.46;27.29
63837;BME280;49991;50.518;30.486;2022-09-09T05:57:10;100615.19;;;23.39;27.46
63837;BME280;49991;50.518;30.486;2022-09-09T05:59:56;100612.16;;;23.47;27.24
63837;BME280;49991;50.518;30.486;2022-09-09T06:02:41;100615.94;;;23.60;27.48
63837;BME280;49991;50.518;30.486;2022-09-09T06:05:27;100622.19;;;23.59;27.53
63837;BME280;49991;50.518;30.486;2022-09-09T06:08:13;100630.09;;;23.61;27.28
63837;BME280;49991;50.518;30.486;2022-09-09T06:11:02;100632.84;;;23.59;27.34
63837;BME280;49991;50.518;30.486;2022-09-09T06:13:49;100645.28;;;23.59;27.48
63837;BME280;49991;50.518;30.486;2022-09-09T06:16:37;100647.94;;;23.59;27.14
63837;BME280;49991;50.518;30.486;2022-09-09T06:19:25;100642.63;;;23.59;26.99
63837;BME280;49991;50.518;30.486;2022-09-09T06:22:12;100639.94;;;23.59;27.24
63837;BME280;49991;50.518;30.486;2022-09-09T06:24:59;100633.63;;;23.61;28.34
63837;BME280;49991;50.518;30.486;2022-09-09T06:27:48;100634.72;;;23.75;26.91
63837;BME280;49991;50.518;30.486;2022-09-09T06:30:34;100638.28;;;23.73;30.07
63837;BME280;49991;50.518;30.486;2022-09-09T06:33:20;100629.84;;;23.83;26.92
63837;BME280;49991;50.518;30.486;2022-09-09T06:36:05;100637.28;;;23.59;27.32
63837;BME280;49991;50.518;30.486;2022-09-09T06:38:51;100645.03;;;23.63;28.84
63837;BME280;49991;50.518;30.486;2022-09-09T06:41:37;100636.88;;;23.84;26.86
63837;BME280;49991;50.518;30.486;2022-09-09T06:44:26;100638.84;;;23.80;27.09
63837;BME280;49991;50.518;30.486;2022-09-09T06:47:13;100622.13;;;23.78;27.50
63837;BME280;49991;50.518;30.486;2022-09-09T06:50:00;100638.38;;;23.72;27.60
63837;BME280;49991;50.518;30.486;2022-09-09T06:52:49;100635.72;;;23.72;27.74
63837;BME280;49991;50.518;30.486;2022-09-09T06:55:34;100634.72;;;23.75;27.49
63837;BME280;49991;50.518;30.486;2022-09-09T06:58:19;100641.03;;;23.72;27.25
63837;BME280;49991;50.518;30.486;2022-09-09T07:01:06;100637.06;;;23.63;27.37
63837;BME280;49991;50.518;30.486;2022-09-09T07:03:54;100651.81;;;23.69;27.53
63837;BME280;49991;50.518;30.486;2022-09-09T07:06:42;100651.66;;;23.55;27.72
63837;BME280;49991;50.518;30.486;2022-09-09T07:09:29;100652.09;;;23.46;27.56
63837;BME280;49991;50.518;30.486;2022-09-09T07:12:15;100656.38;;;23.31;28.05
63837;BME280;49991;50.518;30.486;2022-09-09T07:15:08;100646.75;;;23.28;27.89
63837;BME280;49991;50.518;30.486;2022-09-09T07:17:53;100646.75;;;23.28;27.72
63837;BME280;49991;50.518;30.486;2022-09-09T07:20:40;100648.72;;;23.25;27.97
63837;BME280;49991;50.518;30.486;2022-09-09T07:23:25;100652.69;;;23.16;27.74
63837;BME280;49991;50.518;30.486;2022-09-09T07:26:10;100644.25;;;23.25;27.89
63837;BME280;49991;50.518;30.486;2022-09-09T07:28:56;100655.16;;;23.38;27.50
63837;BME280;49991;50.518;30.486;2022-09-09T07:31:42;100649.25;;;23.31;27.36
63837;BME280;49991;50.518;30.486;2022-09-09T07:34:31;100657.84;;;23.19;27.71
63837;BME280;49991;50.518;30.486;2022-09-09T07:37:18;100647.69;;;23.27;27.68
63837;BME280;49991;50.518;30.486;2022-09-09T07:41:12;100663.38;;;22.77;26.95
63837;BME280;49991;50.518;30.486;2022-09-09T07:44:03;100670.47;;;22.58;27.35
63837;BME280;49991;50.518;30.486;2022-09-09T07:46:49;100681.16;;;21.97;27.95
63837;BME280;49991;50.518;30.486;2022-09-09T07:49:40;100650.16;;;21.56;28.14
63837;BME280;49991;50.518;30.486;2022-09-09T07:52:26;100645.63;;;21.38;28.42
63837;BME280;49991;50.518;30.486;2022-09-09T07:56:05;100652.50;;;21.20;28.91
63837;BME280;49991;50.518;30.486;2022-09-09T07:58:52;100646.75;;;21.33;29.01
63837;BME280;49991;50.518;30.486;2022-09-09T08:01:39;100657.75;;;21.66;28.44
63837;BME280;49991;50.518;30.486;2022-09-09T08:04:27;100668.47;;;21.83;27.97
63837;BME280;49991;50.518;30.486;2022-09-09T08:07:12;100685.03;;;21.68;28.00
63837;BME280;49991;50.518;30.486;2022-09-09T08:10:04;100656.47;;;21.54;28.24
63837;BME280;49991;50.518;30.486;2022-09-09T08:12:53;100669.06;;;21.27;28.55
63837;BME280;49991;50.518;30.486;2022-09-09T08:15:39;100666.31;;;21.07;28.57
63837;BME280;49991;50.518;30.486;2022-09-09T08:18:29;100652.28;;;21.05;28.89
63837;BME280;49991;50.518;30.486;2022-09-09T08:21:16;100662.38;;;21.17;28.28
63837;BME280;49991;50.518;30.486;2022-09-09T08:24:03;57228.25;;;-143.46;100.00
63837;BME280;49991;50.518;30.486;2022-09-09T08:26:49;57228.25;;;-143.46;100.00
63837;BME280;49991;50.518;30.486;2022-09-09T08:29:39;57228.25;;;-143.46;100.00
63837;BME280;49991;50.518;30.486;2022-09-09T08:32:25;57228.25;;;-143.46;100.00
63837;BME280;49991;50.518;30.486;2022-09-09T08:35:12;57228.25;;;-143.46;100.00
63837;BME280;49991;50.518;30.486;2022-09-09T08:37:57;57228.25;;;-143.46;100.00
63837;BME280;49991;50.518;30.486;2022-09-09T08:40:45;57228.25;;;-143.46;100.00
63837;BME280;49991;50.518;30.486;2022-09-09T08:43:34;57228.25;;;-143.46;100.00
63837;BME280;49991;50.518;30.486;2022-09-09T08:46:24;57228.25;;;-143.46;100.00
63837;BME280;49991;50.518;30.486;2022-09-09T08:49:24;57228.25;;;-143.46;100.00
63837;BME280;49991;50.518;30.486;2022-09-09T08:52:22;57228.25;;;-143.46;100.00
63837;BME280;49991;50.518;30.486;2022-09-09T08:55:19;57228.25;;;-143.46;100.00
63837;BME280;49991;50.518;30.486;2022-09-09T08:58:11;57228.25;;;-143.46;100.00
63837;BME280;49991;50.518;30.486;2022-09-09T09:01:02;57228.25;;;-143.46;100.00
63837;BME280;49991;50.518;30.486;2022-09-09T09:03:59;57228.25;;;-143.46;100.00
63837;BME280;49991;50.518;30.486;2022-09-09T09:06:50;57228.25;;;-143.46;100.00
63837;BME280;49991;50.518;30.486;2022-09-09T09:09:46;57228.25;;;-143.46;100.00
63837;BME280;49991;50.518;30.486;2022-09-09T09:12:40;57228.25;;;-143.46;100.00
63837;BME280;49991;50.518;30.486;2022-09-09T09:15:32;57228.25;;;-143.46;100.00
63837;BME280;49991;50.518;30.486;2022-09-09T09:18:21;57228.25;;;-143.46;100.00
63837;BME280;49991;50.518;30.486;2022-09-09T09:21:12;57228.25;;;-143.46;100.00
63837;BME280;49991;50.518;30.486;2022-09-09T09:24:01;57228.25;;;-143.46;100.00
63837;BME280;49991;50.518;30.486;2022-09-09T09:26:49;57228.25;;;-143.46;100.00
63837;BME280;49991;50.518;30.486;2022-09-09T09:29:38;57228.25;;;-143.46;100.00
63837;BME280;49991;50.518;30.486;2022-09-09T09:32:26;57228.25;;;-143.46;100.00
63837;BME280;49991;50.518;30.486;2022-09-09T09:35:13;57228.25;;;-143.46;100.00
63837;BME280;49991;50.518;30.486;2022-09-09T09:38:01;57228.25;;;-143.46;100.00
63837;BME280;49991;50.518;30.486;2022-09-09T09:40:57;57228.25;;;-143.46;100.00
63837;BME280;49991;50.518;30.486;2022-09-09T09:43:53;57228.25;;;-143.46;100.00
63837;BME280;49991;50.518;30.486;2022-09-09T09:46:39;57228.25;;;-143.46;100.00
63837;BME280;49991;50.518;30.486;2022-09-09T09:49:29;57228.25;;;-143.46;100.00
63837;BME280;49991;50.518;30.486;2022-09-09T09:52:20;57228.25;;;-143.46;100.00
63837;BME280;49991;50.518;30.486;2022-09-09T09:55:13;57228.25;;;-143.46;100.00
63837;BME280;49991;50.518;30.486;2022-09-09T09:58:03;57228.25;;;-143.46;100.00
63837;BME280;49991;50.518;30.486;2022-09-09T10:00:49;57228.25;;;-143.46;100.00
63837;BME280;49991;50.518;30.486;2022-09-09T10:03:36;57228.25;;;-143.46;100.00
63837;BME280;49991;50.518;30.486;2022-09-09T10:06:32;57228.25;;;-143.46;100.00
63837;BME280;49991;50.518;30.486;2022-09-09T10:09:21;57228.25;;;-143.46;100.00
63837;BME280;49991;50.518;30.486;2022-09-09T10:12:19;57228.25;;;-143.46;100.00
63837;BME280;49991;50.518;30.486;2022-09-09T10:15:21;57228.25;;;-143.46;100.00
63837;BME280;49991;50.518;30.486;2022-09-09T10:18:24;57228.25;;;-143.46;100.00
63837;BME280;49991;50.518;30.486;2022-09-09T10:21:38;57228.25;;;-143.46;100.00
63837;BME280;49991;50.518;30.486;2022-09-09T10:24:46;57228.25;;;-143.46;100.00
63837;BME280;49991;50.518;30.486;2022-09-09T10:27:40;57228.25;;;-143.46;100.00
63837;BME280;49991;50.518;30.486;2022-09-09T10:30:31;57228.25;;;-143.46;100.00
63837;BME280;49991;50.518;30.486;2022-09-09T10:33:27;57228.25;;;-143.46;100.00
63837;BME280;49991;50.518;30.486;2022-09-09T10:36:18;57228.25;;;-143.46;100.00
63837;BME280;49991;50.518;30.486;2022-09-09T10:39:06;57228.25;;;-143.46;100.00
63837;BME280;49991;50.518;30.486;2022-09-09T10:42:04;57228.25;;;-143.46;100.00
63837;BME280;49991;50.518;30.486;2022-09-09T10:45:02;57228.25;;;-143.46;100.00
63837;BME280;49991;50.518;30.486;2022-09-09T10:48:24;57228.25;;;-143.46;100.00
63837;BME280;49991;50.518;30.486;2022-09-09T10:51:23;57228.25;;;-143.46;100.00
63837;BME280;49991;50.518;30.486;2022-09-09T10:54:26;57228.25;;;-143.46;100.00
63837;BME280;49991;50.518;30.486;2022-09-09T10:57:20;57228.25;;;-143.46;100.00
63837;BME280;49991;50.518;30.486;2022-09-09T11:00:17;57228.25;;;-143.46;100.00
63837;BME280;49991;50.518;30.486;2022-09-09T11:03:04;57228.25;;;-143.46;100.00
63837;BME280;49991;50.518;30.486;2022-09-09T11:05:53;57228.25;;;-143.46;100.00
63837;BME280;49991;50.518;30.486;2022-09-09T11:08:40;57228.25;;;-143.46;100.00
63837;BME280;49991;50.518;30.486;2022-09-09T11:11:29;57228.25;;;-143.46;100.00
63837;BME280;49991;50.518;30.486;2022-09-09T11:14:22;57228.25;;;-143.46;100.00
63837;BME280;49991;50.518;30.486;2022-09-09T11:17:15;57228.25;;;-143.46;100.00
63837;BME280;49991;50.518;30.486;2022-09-09T11:20:05;57228.25;;;-143.46;100.00
63837;BME280;49991;50.518;30.486;2022-09-09T11:22:54;57228.25;;;-143.46;100.00
63837;BME280;49991;50.518;30.486;2022-09-09T11:25:42;57228.25;;;-143.46;100.00
63837;BME280;49991;50.518;30.486;2022-09-09T11:28:41;57228.25;;;-143.46;100.00
63837;BME280;49991;50.518;30.486;2022-09-09T11:31:44;57228.25;;;-143.46;100.00
63837;BME280;49991;50.518;30.486;2022-09-09T11:34:42;57228.25;;;-143.46;100.00
63837;BME280;49991;50.518;30.486;2022-09-09T11:37:54;57228.25;;;-143.46;100.00
63837;BME280;49991;50.518;30.486;2022-09-09T11:40:47;57228.25;;;-143.46;100.00
63837;BME280;49991;50.518;30.486;2022-09-09T11:43:40;57228.25;;;-143.46;100.00
63837;BME280;49991;50.518;30.486;2022-09-09T11:46:34;57228.25;;;-143.46;100.00
63837;BME280;49991;50.518;30.486;2022-09-09T11:49:27;57228.25;;;-143.46;100.00
63837;BME280;49991;50.518;30.486;2022-09-09T11:52:21;57228.25;;;-143.46;100.00
63837;BME280;49991;50.518;30.486;2022-09-09T11:55:09;57228.25;;;-143.46;100.00
63837;BME280;49991;50.518;30.486;2022-09-09T11:57:58;57228.25;;;-143.46;100.00
63837;BME280;49991;50.518;30.486;2022-09-09T12:00:45;57228.25;;;-143.46;100.00
63837;BME280;49991;50.518;30.486;2022-09-09T12:03:36;57228.25;;;-143.46;100.00
63837;BME280;49991;50.518;30.486;2022-09-09T12:06:28;57228.25;;;-143.46;100.00
63837;BME280;49991;50.518;30.486;2022-09-09T12:09:22;57228.25;;;-143.46;100.00
63837;BME280;49991;50.518;30.486;2022-09-09T12:12:26;57228.25;;;-143.46;100.00
63837;BME280;49991;50.518;30.486;2022-09-09T12:15:25;57228.25;;;-143.46;100.00
63837;BME280;49991;50.518;30.486;2022-09-09T12:18:15;57228.25;;;-143.46;100.00
63837;BME280;49991;50.518;30.486;2022-09-09T12:21:14;57228.25;;;-143.46;100.00
63837;BME280;49991;50.518;30.486;2022-09-09T12:24:06;57228.25;;;-143.46;100.00
63837;BME280;49991;50.518;30.486;2022-09-09T12:26:59;57228.25;;;-143.46;100.00
63837;BME280;49991;50.518;30.486;2022-09-09T12:29:54;57228.25;;;-143.46;100.00
63837;BME280;49991;50.518;30.486;2022-09-09T12:32:42;57228.25;;;-143.46;100.00
63837;BME280;49991;50.518;30.486;2022-09-09T12:35:28;57228.25;;;-143.46;100.00
63837;BME280;49991;50.518;30.486;2022-09-09T12:38:20;57228.25;;;-143.46;100.00
63837;BME280;49991;50.518;30.486;2022-09-09T12:41:18;57228.25;;;-143.46;100.00
63837;BME280;49991;50.518;30.486;2022-09-09T12:44:09;57228.25;;;-143.46;100.00
63837;BME280;49991;50.518;30.486;2022-09-09T12:46:55;57228.25;;;-143.46;100.00
63837;BME280;49991;50.518;30.486;2022-09-09T12:49:43;57228.25;;;-143.46;100.00
63837;BME280;49991;50.518;30.486;2022-09-09T12:52:32;57228.25;;;-143.46;100.00
63837;BME280;49991;50.518;30.486;2022-09-09T12:55:19;57228.25;;;-143.46;100.00
63837;BME280;49991;50.518;30.486;2022-09-09T12:58:06;57228.25;;;-143.46;100.00
63837;BME280;49991;50.518;30.486;2022-09-09T13:00:54;57228.25;;;-143.46;100.00
63837;BME280;49991;50.518;30.486;2022-09-09T13:03:42;57228.25;;;-143.46;100.00
63837;BME280;49991;50.518;30.486;2022-09-09T13:06:32;57228.25;;;-143.46;100.00
63837;BME280;49991;50.518;30.486;2022-09-09T13:09:18;57228.25;;;-143.46;100.00
63837;BME280;49991;50.518;30.486;2022-09-09T13:12:04;57228.25;;;-143.46;100.00
63837;BME280;49991;50.518;30.486;2022-09-09T13:14:52;57228.25;;;-143.46;100.00
63837;BME280;49991;50.518;30.486;2022-09-09T13:17:49;57228.25;;;-143.46;100.00
63837;BME280;49991;50.518;30.486;2022-09-09T13:20:35;57228.25;;;-143.46;100.00
63837;BME280;49991;50.518;30.486;2022-09-09T13:23:21;57228.25;;;-143.46;100.00
63837;BME280;49991;50.518;30.486;2022-09-09T13:26:20;57228.25;;;-143.46;100.00
63837;BME280;49991;50.518;30.486;2022-09-09T13:29:16;57228.25;;;-143.46;100.00
63837;BME280;49991;50.518;30.486;2022-09-09T13:35:00;57228.25;;;-143.46;100.00
63837;BME280;49991;50.518;30.486;2022-09-09T13:37:46;57228.25;;;-143.46;100.00
63837;BME280;49991;50.518;30.486;2022-09-09T13:40:32;57228.25;;;-143.46;100.00
63837;BME280;49991;50.518;30.486;2022-09-09T13:43:21;57228.25;;;-143.46;100.00
63837;BME280;49991;50.518;30.486;2022-09-09T13:46:29;57228.25;;;-143.46;100.00
63837;BME280;49991;50.518;30.486;2022-09-09T13:49:20;57228.25;;;-143.46;100.00
63837;BME280;49991;50.518;30.486;2022-09-09T13:52:11;57228.25;;;-143.46;100.00
63837;BME280;49991;50.518;30.486;2022-09-09T13:54:57;57228.25;;;-143.46;100.00
63837;BME280;49991;50.518;30.486;2022-09-09T13:57:50;57228.25;;;-143.46;100.00
63837;BME280;49991;50.518;30.486;2022-09-09T14:00:35;57228.25;;;-143.46;100.00
63837;BME280;49991;50.518;30.486;2022-09-09T14:03:21;57228.25;;;-143.46;100.00
63837;BME280;49991;50.518;30.486;2022-09-09T14:06:06;57228.25;;;-143.46;100.00
63837;BME280;49991;50.518;30.486;2022-09-09T14:08:53;57228.25;;;-143.46;100.00
63837;BME280;49991;50.518;30.486;2022-09-09T14:11:38;57228.25;;;-143.46;100.00
63837;BME280;49991;50.518;30.486;2022-09-09T14:14:24;57228.25;;;-143.46;100.00
63837;BME280;49991;50.518;30.486;2022-09-09T14:17:10;57228.25;;;-143.46;100.00
63837;BME280;49991;50.518;30.486;2022-09-09T14:19:56;57228.25;;;-143.46;100.00
63837;BME280;49991;50.518;30.486;2022-09-09T14:22:41;57228.25;;;-143.46;100.00
63837;BME280;49991;50.518;30.486;2022-09-09T14:25:29;57228.25;;;-143.46;100.00
63837;BME280;49991;50.518;30.486;2022-09-09T14:28:15;57228.25;;;-143.46;100.00